createdAt,value
2023-01-17T00:02:05.774Z,3.88
2023-01-17T00:04:51.534Z,2.13
2023-01-17T00:07:40.005Z,3.40
2023-01-17T00:10:11.278Z,3.22
2023-01-17T00:12:39.323Z,1.92
2023-01-17T00:15:08.527Z,2.33
2023-01-17T00:17:36.314Z,1.38
2023-01-17T00:20:21.746Z,2.72
2023-01-17T00:23:13.466Z,1.60
2023-01-17T00:25:59.370Z,4.88
2023-01-17T00:28:27.147Z,1.98
2023-01-17T00:30:53.882Z,3.22
2023-01-17T00:33:21.671Z,3.63
2023-01-17T00:35:48.998Z,6.90
2023-01-17T00:38:18.661Z,3.13
2023-01-17T00:40:46.918Z,4.82
2023-01-17T00:43:34.151Z,6.03
2023-01-17T00:46:20.727Z,4.85
2023-01-17T00:49:06.152Z,1.70
2023-01-17T00:51:52.900Z,2.75
2023-01-17T00:54:39.640Z,2.38
2023-01-17T00:57:25.826Z,1.90
2023-01-17T01:00:11.284Z,1.80
2023-01-17T01:02:56.683Z,0.98
2023-01-17T01:05:42.431Z,1.13
2023-01-17T01:08:40.348Z,1.95
2023-01-17T01:11:29.620Z,4.10
2023-01-17T01:14:15.134Z,3.67
2023-01-17T01:17:00.178Z,1.38
2023-01-17T01:19:45.850Z,1.58
2023-01-17T01:22:31.368Z,3.00
2023-01-17T01:25:16.659Z,1.45
2023-01-17T01:28:03.848Z,1.48
2023-01-17T01:30:49.065Z,4.32
2023-01-17T01:33:19.255Z,3.72
2023-01-17T01:35:49.350Z,2.20
2023-01-17T01:38:17.274Z,3.45
2023-01-17T01:40:46.860Z,2.70
2023-01-17T01:43:19.617Z,5.82
2023-01-17T01:45:53.146Z,2.45
2023-01-17T01:48:34.685Z,1.45
2023-01-17T01:51:05.091Z,0.30
2023-01-17T01:53:35.392Z,5.15
2023-01-17T01:56:07.157Z,1.98
2023-01-17T01:58:37.882Z,0.60
2023-01-17T02:01:08.161Z,1.63
2023-01-17T02:03:37.336Z,2.03
2023-01-17T02:06:20.108Z,1.10
2023-01-17T02:08:48.735Z,1.80
2023-01-17T02:13:45.628Z,0.90
2023-01-17T02:16:21.915Z,0.63
2023-01-17T02:19:00.644Z,2.22
2023-01-17T02:21:34.383Z,1.17
2023-01-17T02:24:33.904Z,1.23
2023-01-17T02:27:08.264Z,3.35
2023-01-17T02:30:21.492Z,1.65
2023-01-17T02:33:02.952Z,2.83
2023-01-17T02:35:38.670Z,3.53
2023-01-17T02:38:18.146Z,2.10
2023-01-17T02:40:50.447Z,2.35
2023-01-17T02:43:19.766Z,2.47
2023-01-17T02:45:47.630Z,2.42
2023-01-17T02:48:19.837Z,3.67
2023-01-17T02:51:12.288Z,4.65
2023-01-17T02:53:54.157Z,2.88
2023-01-17T02:56:35.353Z,2.78
2023-01-17T02:59:12.222Z,4.45
2023-01-17T03:01:54.096Z,3.35
2023-01-17T03:04:29.285Z,3.03
2023-01-17T03:07:01.849Z,3.78
2023-01-17T03:09:31.422Z,5.75
2023-01-17T03:12:00.189Z,2.83
2023-01-17T03:14:31.183Z,4.05
2023-01-17T03:16:59.074Z,1.58
2023-01-17T03:19:28.217Z,3.88
2023-01-17T03:21:56.121Z,3.25
2023-01-17T03:24:23.885Z,2.90
2023-01-17T03:26:51.666Z,4.68
2023-01-17T03:29:20.286Z,4.78
2023-01-17T03:31:48.077Z,2.78
2023-01-17T03:34:15.877Z,1.63
2023-01-17T03:36:45.036Z,4.50
2023-01-17T03:39:12.828Z,3.78
2023-01-17T03:41:40.656Z,6.35
2023-01-17T03:44:08.458Z,3.97
2023-01-17T03:46:36.422Z,3.28
2023-01-17T03:49:04.240Z,2.53
2023-01-17T03:51:32.009Z,4.13
2023-01-17T03:54:01.154Z,1.65
2023-01-17T03:56:28.969Z,5.68
2023-01-17T03:58:58.501Z,1.58
2023-01-17T04:01:26.493Z,2.33
2023-01-17T04:03:54.443Z,1.67
2023-01-17T04:06:22.198Z,4.28
2023-01-17T04:08:50.046Z,3.03
2023-01-17T04:11:19.165Z,4.00
2023-01-17T04:13:46.987Z,4.22
2023-01-17T04:16:18.375Z,3.25
2023-01-17T04:18:46.214Z,3.40
2023-01-17T04:21:13.984Z,1.38
2023-01-17T04:23:41.720Z,2.60
2023-01-17T04:26:10.488Z,4.65
2023-01-17T04:28:39.847Z,5.43
2023-01-17T04:31:08.132Z,6.70
2023-01-17T04:33:35.901Z,1.92
2023-01-17T04:36:03.688Z,6.93
2023-01-17T04:38:31.520Z,2.55
2023-01-17T04:40:59.294Z,4.28
2023-01-17T04:43:27.062Z,3.53
2023-01-17T04:45:58.184Z,7.30
2023-01-17T04:48:27.157Z,6.35
2023-01-17T04:51:00.547Z,6.10
2023-01-17T04:53:28.586Z,2.90
2023-01-17T04:55:56.370Z,2.40
2023-01-17T04:58:24.221Z,4.47
2023-01-17T05:00:52.083Z,3.10
2023-01-17T05:03:22.875Z,2.60
2023-01-17T05:05:50.630Z,3.88
2023-01-17T05:08:18.425Z,2.33
2023-01-17T05:10:47.203Z,6.28
2023-01-17T05:13:15.410Z,2.80
2023-01-17T05:15:43.284Z,4.22
2023-01-17T05:18:13.826Z,1.75
2023-01-17T05:20:43.477Z,1.98
2023-01-17T05:23:11.956Z,4.30
2023-01-17T05:25:44.444Z,8.27
2023-01-17T05:28:13.937Z,2.90
2023-01-17T05:30:42.251Z,2.22
2023-01-17T05:33:10.543Z,12.45
2023-01-17T05:35:38.923Z,4.55
2023-01-17T05:38:08.141Z,2.72
2023-01-17T05:40:36.211Z,8.57
2023-01-17T05:43:04.536Z,5.05
2023-01-17T05:45:33.684Z,5.10
2023-01-17T05:48:02.163Z,2.53
2023-01-17T05:50:31.893Z,4.45
2023-01-17T05:53:01.902Z,7.28
2023-01-17T05:55:32.526Z,5.78
2023-01-17T05:58:00.880Z,2.88
2023-01-17T06:00:29.077Z,3.15
2023-01-17T06:02:57.605Z,4.30
2023-01-17T06:05:26.389Z,8.15
2023-01-17T06:07:54.863Z,3.90
2023-01-17T06:10:23.279Z,7.22
2023-01-17T06:13:01.970Z,3.72
2023-01-17T06:15:29.878Z,4.75
2023-01-17T06:17:57.784Z,5.75
2023-01-17T06:20:25.720Z,6.30
2023-01-17T06:22:55.261Z,8.77
2023-01-17T06:25:23.103Z,7.00
2023-01-17T06:27:54.628Z,10.45
2023-01-17T06:30:22.687Z,7.15
2023-01-17T06:32:53.769Z,8.85
2023-01-17T06:35:21.622Z,7.57
2023-01-17T06:37:52.048Z,10.38
2023-01-17T06:40:20.160Z,7.13
2023-01-17T06:42:47.947Z,7.35
2023-01-17T06:45:17.347Z,8.30
2023-01-17T06:47:45.206Z,7.78
2023-01-17T06:50:14.566Z,9.90
2023-01-17T06:52:43.678Z,7.47
2023-01-17T06:55:11.491Z,8.88
2023-01-17T06:57:39.258Z,9.38
2023-01-17T07:00:08.332Z,8.88
2023-01-17T07:02:37.495Z,9.52
2023-01-17T07:05:05.652Z,8.95
2023-01-17T07:07:34.084Z,9.05
2023-01-17T07:10:03.517Z,9.38
2023-01-17T07:12:31.328Z,7.78
2023-01-17T07:14:59.139Z,9.63
2023-01-17T07:17:26.897Z,8.85
2023-01-17T07:19:56.061Z,11.65
2023-01-17T07:22:23.886Z,8.35
2023-01-17T07:24:53.467Z,11.32
2023-01-17T07:27:21.318Z,12.02
2023-01-17T07:29:49.687Z,12.00
2023-01-17T07:32:17.470Z,15.43
2023-01-17T07:34:45.298Z,9.80
2023-01-17T07:37:15.422Z,10.77
2023-01-17T07:39:43.487Z,9.27
2023-01-17T07:42:11.299Z,8.95
2023-01-17T07:44:41.393Z,12.15
2023-01-17T07:47:09.236Z,12.00
2023-01-17T07:49:37.112Z,8.70
2023-01-17T07:52:05.209Z,9.45
2023-01-17T07:54:34.359Z,10.30
2023-01-17T07:57:02.905Z,9.65
2023-01-17T07:59:30.807Z,8.73
2023-01-17T08:01:58.756Z,7.07
2023-01-17T08:04:27.286Z,10.52
2023-01-17T08:06:55.137Z,14.80
2023-01-17T08:09:23.172Z,10.65
2023-01-17T08:11:52.311Z,6.68
2023-01-17T08:14:20.069Z,14.60
2023-01-17T08:16:47.850Z,12.57
2023-01-17T08:19:18.519Z,7.65
2023-01-17T08:21:46.459Z,6.68
2023-01-17T08:24:14.689Z,7.82
2023-01-17T08:26:42.496Z,13.13
2023-01-17T08:29:11.665Z,8.25
2023-01-17T08:31:39.484Z,6.53
2023-01-17T08:34:07.431Z,6.80
2023-01-17T08:36:35.265Z,8.20
2023-01-17T08:39:03.021Z,9.27
2023-01-17T08:41:32.205Z,12.02
2023-01-17T08:43:59.985Z,19.30
2023-01-17T08:46:31.383Z,5.88
2023-01-17T08:49:02.614Z,8.05
2023-01-17T08:51:32.414Z,7.13
2023-01-17T08:54:00.253Z,5.97
2023-01-17T08:56:28.151Z,5.45
2023-01-17T08:58:55.951Z,5.85
2023-01-17T09:01:23.932Z,7.15
2023-01-17T09:03:53.252Z,4.90
2023-01-17T09:06:21.040Z,7.00
2023-01-17T09:08:49.712Z,9.95
2023-01-17T09:11:18.826Z,8.38
2023-01-17T09:13:46.669Z,7.72
2023-01-17T09:16:14.440Z,5.20
2023-01-17T09:18:42.252Z,5.25
2023-01-17T09:21:16.279Z,5.13
2023-01-17T09:23:44.916Z,4.68
2023-01-17T09:28:46.485Z,6.70
2023-01-17T09:31:16.543Z,7.97
2023-01-17T09:33:45.186Z,7.18
2023-01-17T09:36:14.393Z,8.75
2023-01-17T09:38:42.339Z,7.30
2023-01-17T09:41:27.454Z,5.90
2023-01-17T09:44:01.028Z,5.20
2023-01-17T09:46:31.747Z,11.90
2023-01-17T09:49:05.797Z,6.20
2023-01-17T09:51:35.435Z,6.20
2023-01-17T09:54:03.491Z,5.72
2023-01-17T09:56:36.555Z,8.98
2023-01-17T09:59:19.199Z,5.95
2023-01-17T10:01:55.595Z,5.57
2023-01-17T10:04:48.962Z,6.05
2023-01-17T10:07:34.088Z,5.35
2023-01-17T10:10:20.215Z,6.40
2023-01-17T10:12:56.087Z,9.10
2023-01-17T10:15:50.092Z,10.40
2023-01-17T10:18:33.095Z,6.43
2023-01-17T10:21:08.587Z,9.55
2023-01-17T10:23:51.872Z,9.98
2023-01-17T10:26:24.887Z,9.63
2023-01-17T10:28:56.606Z,8.75
2023-01-17T10:31:26.037Z,10.38
2023-01-17T10:33:55.553Z,7.55
2023-01-17T10:36:25.142Z,12.77
2023-01-17T10:38:57.880Z,8.82
2023-01-17T10:41:30.340Z,10.73
2023-01-17T10:44:08.434Z,10.07
2023-01-17T10:46:42.348Z,9.52
2023-01-17T10:49:16.746Z,12.77
2023-01-17T10:52:00.139Z,8.90
2023-01-17T10:54:46.670Z,8.13
2023-01-17T10:57:16.969Z,14.88
2023-01-17T10:59:45.301Z,14.07
2023-01-17T11:02:21.524Z,10.73
2023-01-17T11:04:57.593Z,8.73
2023-01-17T11:07:27.422Z,12.82
2023-01-17T11:09:58.162Z,12.57
2023-01-17T11:12:30.220Z,8.63
2023-01-17T11:15:05.863Z,12.38
2023-01-17T11:17:35.027Z,10.55
2023-01-17T11:20:19.941Z,13.57
2023-01-17T11:23:03.668Z,9.93
2023-01-17T11:25:35.026Z,10.27
2023-01-17T11:28:07.040Z,12.27
2023-01-17T11:30:35.168Z,11.48
2023-01-17T11:33:06.084Z,12.27
2023-01-17T11:35:36.623Z,10.00
2023-01-17T11:38:07.392Z,10.07
2023-01-17T11:40:40.629Z,16.15
2023-01-17T11:43:25.516Z,11.48
2023-01-17T11:46:06.340Z,9.88
2023-01-17T11:48:37.153Z,11.85
2023-01-17T11:51:18.560Z,8.63
2023-01-17T11:53:48.370Z,8.70
2023-01-17T11:56:30.696Z,8.45
2023-01-17T11:59:24.450Z,10.43
2023-01-17T12:02:05.822Z,9.02
2023-01-17T12:04:39.555Z,9.05
2023-01-17T12:07:19.924Z,9.85
2023-01-17T12:09:54.521Z,8.98
2023-01-17T12:12:49.435Z,9.35
2023-01-17T12:15:35.377Z,9.27
2023-01-17T12:18:21.983Z,6.70
2023-01-17T12:20:57.535Z,6.22
2023-01-17T12:24:03.127Z,6.25
2023-01-17T12:26:38.885Z,6.80
2023-01-17T12:29:35.652Z,8.30
2023-01-17T12:32:22.253Z,6.43
2023-01-17T12:34:54.542Z,7.85
2023-01-17T12:37:29.502Z,6.30
2023-01-17T12:40:01.824Z,5.82
2023-01-17T12:42:33.718Z,5.65
2023-01-17T12:45:06.903Z,7.07
2023-01-17T12:47:38.333Z,4.93
2023-01-17T12:50:22.293Z,4.78
2023-01-17T12:52:59.467Z,4.07
2023-01-17T12:55:36.872Z,4.60
2023-01-17T12:58:14.613Z,5.40
2023-01-17T13:01:20.791Z,4.60
2023-01-17T13:04:00.196Z,4.95
2023-01-17T13:06:43.363Z,6.93
2023-01-17T13:09:14.966Z,4.32
2023-01-17T13:11:49.752Z,5.05
2023-01-17T13:14:17.569Z,7.03
2023-01-17T13:19:25.718Z,4.70
2023-01-17T13:21:54.494Z,4.68
2023-01-17T13:24:41.702Z,6.10
2023-01-17T13:27:32.430Z,5.70
2023-01-17T13:30:25.304Z,4.80
2023-01-17T13:33:10.256Z,5.35
2023-01-17T13:35:43.662Z,5.30
2023-01-17T13:38:25.187Z,4.20
2023-01-17T13:40:55.610Z,3.53
2023-01-17T13:43:26.790Z,3.08
2023-01-17T13:45:56.931Z,4.88
2023-01-17T13:48:32.351Z,4.30
2023-01-17T13:51:02.259Z,5.63
2023-01-17T13:54:00.110Z,4.60
2023-01-17T13:56:30.690Z,3.10
2023-01-17T13:59:03.049Z,3.10
2023-01-17T14:01:50.818Z,3.47
2023-01-17T14:04:20.791Z,2.63
2023-01-17T14:06:52.913Z,4.28
2023-01-17T14:09:26.021Z,2.90
2023-01-17T14:12:00.846Z,3.20
2023-01-17T14:14:48.750Z,3.05
2023-01-17T14:17:38.266Z,2.90
2023-01-17T14:20:51.988Z,4.20
2023-01-17T14:23:47.995Z,5.00
2023-01-17T14:26:31.118Z,5.20
2023-01-17T14:29:00.955Z,4.65
2023-01-17T14:31:30.498Z,5.20
2023-01-17T14:34:13.090Z,6.60
2023-01-17T14:36:41.087Z,5.13
2023-01-17T14:39:23.192Z,6.40
2023-01-17T14:41:51.265Z,4.63
2023-01-17T14:44:20.234Z,4.40
2023-01-17T14:46:49.936Z,6.60
2023-01-17T14:49:24.056Z,5.55
2023-01-17T14:52:01.582Z,5.38
2023-01-17T14:54:30.754Z,5.82
2023-01-17T14:57:27.077Z,8.07
2023-01-17T15:00:11.009Z,7.10
2023-01-17T15:02:42.889Z,3.97
2023-01-17T15:05:16.237Z,6.63
2023-01-17T15:07:46.818Z,5.35
2023-01-17T15:10:18.531Z,5.43
2023-01-17T15:12:47.759Z,8.40
2023-01-17T15:15:35.280Z,7.95
2023-01-17T15:18:26.184Z,4.70
2023-01-17T15:21:00.463Z,4.85
2023-01-17T15:23:33.486Z,3.80
2023-01-17T15:26:04.931Z,4.65
2023-01-17T15:28:34.476Z,5.75
2023-01-17T15:31:08.835Z,4.72
2023-01-17T15:33:39.149Z,5.47
2023-01-17T15:36:09.877Z,5.63
2023-01-17T15:38:39.851Z,5.25
2023-01-17T15:41:12.881Z,5.60
2023-01-17T15:43:42.058Z,5.00
2023-01-17T15:46:23.403Z,4.03
2023-01-17T15:48:51.790Z,3.78
2023-01-17T15:51:34.111Z,2.65
2023-01-17T15:54:25.667Z,4.93
2023-01-17T15:57:14.719Z,3.00
2023-01-17T15:59:46.493Z,3.78
2023-01-17T16:02:34.836Z,4.28
2023-01-17T16:05:05.810Z,6.10
2023-01-17T16:07:36.480Z,4.20
2023-01-17T16:10:14.629Z,5.22
2023-01-17T16:12:43.755Z,4.03
2023-01-17T16:15:13.527Z,6.63
2023-01-17T16:17:45.474Z,5.18
2023-01-17T16:20:19.735Z,4.00
2023-01-17T16:22:48.043Z,5.35
2023-01-17T16:25:19.009Z,4.63
2023-01-17T16:27:49.045Z,6.00
2023-01-17T16:30:19.527Z,5.28
2023-01-17T16:32:49.336Z,7.15
2023-01-17T16:35:20.780Z,6.25
2023-01-17T16:37:50.452Z,9.70
2023-01-17T16:40:18.860Z,6.80
2023-01-17T16:42:48.446Z,4.95
2023-01-17T16:45:17.204Z,6.05
2023-01-17T16:47:48.278Z,5.63
2023-01-17T16:50:18.182Z,5.13
2023-01-17T16:52:46.002Z,6.75
2023-01-17T16:55:16.124Z,5.88
2023-01-17T16:57:44.373Z,6.55
2023-01-17T17:00:14.675Z,5.15
2023-01-17T17:02:42.745Z,5.40
2023-01-17T17:05:11.472Z,7.72
2023-01-17T17:07:42.923Z,4.93
2023-01-17T17:10:11.440Z,6.07
2023-01-17T17:15:08.233Z,7.18
2023-01-17T17:17:38.337Z,5.25
2023-01-17T17:20:09.715Z,4.90
2023-01-17T17:22:37.532Z,5.95
2023-01-17T17:25:06.787Z,6.57
2023-01-17T17:27:34.810Z,6.05
2023-01-17T17:30:02.715Z,8.68
2023-01-17T17:32:30.934Z,6.00
2023-01-17T17:35:00.193Z,6.40
2023-01-17T17:37:29.094Z,4.78
2023-01-17T17:39:57.274Z,5.22
2023-01-17T17:42:26.584Z,4.88
2023-01-17T17:44:55.741Z,6.55
2023-01-17T17:47:25.013Z,4.32
2023-01-17T17:49:52.866Z,5.10
2023-01-17T17:52:23.358Z,5.82
2023-01-17T17:54:51.161Z,4.68
2023-01-17T17:57:18.980Z,5.80
2023-01-17T17:59:46.795Z,4.22
2023-01-17T18:02:14.752Z,8.52
2023-01-17T18:04:42.696Z,4.28
2023-01-17T18:07:10.486Z,5.53
2023-01-17T18:09:40.011Z,4.88
2023-01-17T18:12:08.391Z,4.70
2023-01-17T18:14:36.192Z,6.05
2023-01-17T18:17:04.059Z,5.75
2023-01-17T18:19:31.879Z,5.88
2023-01-17T18:21:59.643Z,7.15
2023-01-17T18:24:28.409Z,8.05
2023-01-17T18:26:58.862Z,5.03
2023-01-17T18:29:28.205Z,5.03
2023-01-17T18:31:56.845Z,6.30
2023-01-17T18:36:57.656Z,5.82
2023-01-17T18:41:54.291Z,5.47
2023-01-17T18:44:23.679Z,7.28
2023-01-17T18:46:51.875Z,6.65
2023-01-17T18:49:19.957Z,7.90
2023-01-17T18:51:50.758Z,9.55
2023-01-17T18:54:19.159Z,6.78
2023-01-17T18:56:47.236Z,6.75
2023-01-17T18:59:18.057Z,8.35
2023-01-17T19:01:47.364Z,9.82
2023-01-17T19:04:16.231Z,8.82
2023-01-17T19:06:46.870Z,10.95
2023-01-17T19:09:16.340Z,12.60
2023-01-17T19:11:45.094Z,12.65
2023-01-17T19:14:14.435Z,9.60
2023-01-17T19:16:43.223Z,11.05
2023-01-17T19:19:15.399Z,9.70
2023-01-17T19:21:43.605Z,10.18
2023-01-17T19:24:13.035Z,8.82
2023-01-17T19:26:41.242Z,10.52
2023-01-17T19:29:09.062Z,11.27
2023-01-17T19:31:42.505Z,10.10
2023-01-17T19:34:14.182Z,9.55
2023-01-17T19:36:42.221Z,9.98
2023-01-17T19:39:10.613Z,12.18
2023-01-17T19:41:42.924Z,12.32
2023-01-17T19:44:12.092Z,9.25
2023-01-17T19:46:39.912Z,10.40
2023-01-17T19:49:09.472Z,10.35
2023-01-17T19:51:40.329Z,10.15
2023-01-17T19:54:08.457Z,9.15
2023-01-17T19:56:36.648Z,10.48
2023-01-17T19:59:04.461Z,14.38
2023-01-17T20:01:34.032Z,20.70
2023-01-17T20:04:02.921Z,20.77
2023-01-17T20:06:32.870Z,14.65
2023-01-17T20:09:02.798Z,14.80
2023-01-17T20:11:30.615Z,8.68
2023-01-17T20:13:59.959Z,8.82
2023-01-17T20:16:31.150Z,12.38
2023-01-17T20:19:00.196Z,11.00
2023-01-17T20:21:30.038Z,10.60
2023-01-17T20:23:59.504Z,10.30
2023-01-17T20:26:34.572Z,9.52
2023-01-17T20:29:03.239Z,11.98
2023-01-17T20:33:59.921Z,11.13
2023-01-17T20:36:28.942Z,9.70
2023-01-17T20:39:16.001Z,9.25
2023-01-17T20:41:49.781Z,10.50
2023-01-17T20:44:18.673Z,11.73
2023-01-17T20:46:48.117Z,10.05
2023-01-17T20:49:18.708Z,15.10
2023-01-17T20:51:47.915Z,11.77
2023-01-17T20:54:18.144Z,11.25
2023-01-17T20:56:48.133Z,14.35
2023-01-17T20:59:18.155Z,13.25
2023-01-17T21:01:46.831Z,9.32
2023-01-17T21:04:15.145Z,9.77
2023-01-17T21:06:44.135Z,10.02
2023-01-17T21:09:14.248Z,12.95
2023-01-17T21:11:42.357Z,13.40
2023-01-17T21:14:11.523Z,11.82
2023-01-17T21:16:39.560Z,9.70
2023-01-17T21:19:11.766Z,11.60
2023-01-17T21:21:39.545Z,10.68
2023-01-17T21:24:07.691Z,10.95
2023-01-17T21:26:38.200Z,11.85
2023-01-17T21:29:06.076Z,12.30
2023-01-17T21:31:36.698Z,12.70
2023-01-17T21:34:07.018Z,18.27
2023-01-17T21:36:37.012Z,18.92
2023-01-17T21:39:06.792Z,12.30
2023-01-17T21:41:36.666Z,14.50
2023-01-17T21:44:07.927Z,12.38
2023-01-17T21:46:39.678Z,13.93
2023-01-17T21:49:10.463Z,10.63
2023-01-17T21:52:02.176Z,11.98
2023-01-17T21:54:48.863Z,11.63
2023-01-17T21:57:36.384Z,12.15
2023-01-17T22:00:06.382Z,13.07
2023-01-17T22:02:40.991Z,11.15
2023-01-17T22:05:10.182Z,8.90
2023-01-17T22:07:38.975Z,14.90
2023-01-17T22:10:07.921Z,13.43
2023-01-17T22:12:35.689Z,15.60
2023-01-17T22:15:04.104Z,12.27
2023-01-17T22:17:31.871Z,13.02
2023-01-17T22:20:01.011Z,13.75
2023-01-17T22:22:33.028Z,12.80
2023-01-17T22:25:00.814Z,11.20
2023-01-17T22:27:29.623Z,9.88
2023-01-17T22:29:57.398Z,13.38
2023-01-17T22:32:25.301Z,11.45
2023-01-17T22:34:53.543Z,11.90
2023-01-17T22:37:22.698Z,14.98
2023-01-17T22:39:50.511Z,14.25
2023-01-17T22:42:18.434Z,12.82
2023-01-17T22:44:47.705Z,15.77
2023-01-17T22:47:15.549Z,16.40
2023-01-17T22:49:43.357Z,12.75
2023-01-17T22:52:11.140Z,10.60
2023-01-17T22:54:40.285Z,9.85
2023-01-17T22:57:08.449Z,12.95
2023-01-17T22:59:36.306Z,9.88
2023-01-17T23:02:04.145Z,10.20
2023-01-17T23:04:31.935Z,13.50
2023-01-17T23:06:59.717Z,9.70
2023-01-17T23:09:27.781Z,8.32
2023-01-17T23:11:56.881Z,11.25
2023-01-17T23:14:26.386Z,13.50
2023-01-17T23:17:13.750Z,9.63
2023-01-17T23:19:43.131Z,10.35
2023-01-17T23:22:22.172Z,9.70
2023-01-17T23:24:52.348Z,12.95
2023-01-17T23:27:41.280Z,12.45
2023-01-17T23:30:12.617Z,10.63
2023-01-17T23:32:41.811Z,14.00
2023-01-17T23:35:09.915Z,14.32
2023-01-17T23:37:55.354Z,10.52
2023-01-17T23:40:23.241Z,15.55
2023-01-17T23:43:09.656Z,8.32
2023-01-17T23:45:38.656Z,10.48
2023-01-17T23:48:09.468Z,8.85
2023-01-17T23:50:37.741Z,11.73
2023-01-17T23:53:08.682Z,12.63
2023-01-17T23:55:38.235Z,9.15
2023-01-17T23:58:08.500Z,12.00
